sensor_id;sensor_type;location;lat;lon;timestamp;temperature;humidity
23301;DHT22;11819;51.394;12.340;2022-11-14T00:02:04;4.60;86.50
23301;DHT22;11819;51.394;12.340;2022-11-14T00:04:48;4.60;86.60
23301;DHT22;11819;51.394;12.340;2022-11-14T00:07:33;4.50;86.50
23301;DHT22;11819;51.394;12.340;2022-11-14T00:10:19;4.50;86.60
23301;DHT22;11819;51.394;12.340;2022-11-14T00:13:03;4.50;86.60
23301;DHT22;11819;51.394;12.340;2022-11-14T00:15:49;4.50;86.80
23301;DHT22;11819;51.394;12.340;2022-11-14T00:18:37;4.50;86.90
23301;DHT22;11819;51.394;12.340;2022-11-14T00:21:21;4.50;86.80
23301;DHT22;11819;51.394;12.340;2022-11-14T00:24:05;4.50;86.80
23301;DHT22;11819;51.394;12.340;2022-11-14T00:26:49;4.50;86.70
23301;DHT22;11819;51.394;12.340;2022-11-14T00:29:33;4.50;86.60
23301;DHT22;11819;51.394;12.340;2022-11-14T00:32:17;4.40;86.40
23301;DHT22;11819;51.394;12.340;2022-11-14T00:35:03;4.40;86.40
23301;DHT22;11819;51.394;12.340;2022-11-14T00:37:49;4.40;86.40
23301;DHT22;11819;51.394;12.340;2022-11-14T00:40:33;4.40;86.40
23301;DHT22;11819;51.394;12.340;2022-11-14T00:43:17;4.40;86.30
23301;DHT22;11819;51.394;12.340;2022-11-14T00:46:02;4.40;86.20
23301;DHT22;11819;51.394;12.340;2022-11-14T00:48:46;4.30;86.10
23301;DHT22;11819;51.394;12.340;2022-11-14T00:51:30;4.30;86.20
23301;DHT22;11819;51.394;12.340;2022-11-14T00:54:15;4.30;86.10
23301;DHT22;11819;51.394;12.340;2022-11-14T00:56:59;4.30;86.20
23301;DHT22;11819;51.394;12.340;2022-11-14T00:59:43;4.30;86.20
23301;DHT22;11819;51.394;12.340;2022-11-14T01:02:27;4.30;86.20
23301;DHT22;11819;51.394;12.340;2022-11-14T01:05:11;4.40;86.30
23301;DHT22;11819;51.394;12.340;2022-11-14T01:07:55;4.40;86.30
23301;DHT22;11819;51.394;12.340;2022-11-14T01:10:42;4.40;86.30
23301;DHT22;11819;51.394;12.340;2022-11-14T01:13:30;4.40;87.10
23301;DHT22;11819;51.394;12.340;2022-11-14T01:16:15;4.50;86.40
23301;DHT22;11819;51.394;12.340;2022-11-14T01:18:59;4.50;86.40
23301;DHT22;11819;51.394;12.340;2022-11-14T01:21:45;4.50;86.30
23301;DHT22;11819;51.394;12.340;2022-11-14T01:24:31;4.50;86.20
23301;DHT22;11819;51.394;12.340;2022-11-14T01:27:15;4.50;86.30
23301;DHT22;11819;51.394;12.340;2022-11-14T01:29:59;4.50;86.30
23301;DHT22;11819;51.394;12.340;2022-11-14T01:32:43;4.50;86.50
23301;DHT22;11819;51.394;12.340;2022-11-14T01:35:27;4.60;86.80
23301;DHT22;11819;51.394;12.340;2022-11-14T01:38:13;4.70;87.10
23301;DHT22;11819;51.394;12.340;2022-11-14T01:40:58;4.90;87.30
23301;DHT22;11819;51.394;12.340;2022-11-14T01:43:42;5.00;87.40
23301;DHT22;11819;51.394;12.340;2022-11-14T01:46:36;5.10;87.40
23301;DHT22;11819;51.394;12.340;2022-11-14T01:49:24;5.20;87.50
23301;DHT22;11819;51.394;12.340;2022-11-14T01:52:21;5.20;87.70
23301;DHT22;11819;51.394;12.340;2022-11-14T01:55:08;5.40;87.90
23301;DHT22;11819;51.394;12.340;2022-11-14T01:57:52;5.40;87.80
23301;DHT22;11819;51.394;12.340;2022-11-14T02:00:37;5.40;88.00
23301;DHT22;11819;51.394;12.340;2022-11-14T02:03:21;5.40;88.00
23301;DHT22;11819;51.394;12.340;2022-11-14T02:06:07;5.50;88.10
23301;DHT22;11819;51.394;12.340;2022-11-14T02:08:53;5.50;88.30
23301;DHT22;11819;51.394;12.340;2022-11-14T02:11:40;5.50;88.40
23301;DHT22;11819;51.394;12.340;2022-11-14T02:14:26;5.50;88.50
23301;DHT22;11819;51.394;12.340;2022-11-14T02:17:12;5.60;88.60
23301;DHT22;11819;51.394;12.340;2022-11-14T02:22:46;5.60;88.70
23301;DHT22;11819;51.394;12.340;2022-11-14T02:25:30;5.60;88.70
23301;DHT22;11819;51.394;12.340;2022-11-14T02:28:16;5.60;88.90
23301;DHT22;11819;51.394;12.340;2022-11-14T02:31:03;5.70;89.00
23301;DHT22;11819;51.394;12.340;2022-11-14T02:33:47;5.70;89.10
23301;DHT22;11819;51.394;12.340;2022-11-14T02:36:31;5.70;89.10
23301;DHT22;11819;51.394;12.340;2022-11-14T02:39:15;5.70;89.10
23301;DHT22;11819;51.394;12.340;2022-11-14T02:42:00;5.70;89.00
23301;DHT22;11819;51.394;12.340;2022-11-14T02:44:44;5.70;89.10
23301;DHT22;11819;51.394;12.340;2022-11-14T02:47:28;5.70;89.20
23301;DHT22;11819;51.394;12.340;2022-11-14T02:50:12;5.70;89.20
23301;DHT22;11819;51.394;12.340;2022-11-14T02:52:56;5.70;89.40
23301;DHT22;11819;51.394;12.340;2022-11-14T02:55:44;5.60;89.30
23301;DHT22;11819;51.394;12.340;2022-11-14T02:58:28;5.60;89.50
23301;DHT22;11819;51.394;12.340;2022-11-14T03:01:12;5.60;89.50
23301;DHT22;11819;51.394;12.340;2022-11-14T03:03:56;5.60;89.70
23301;DHT22;11819;51.394;12.340;2022-11-14T03:06:40;5.50;89.70
23301;DHT22;11819;51.394;12.340;2022-11-14T03:09:24;5.50;89.70
23301;DHT22;11819;51.394;12.340;2022-11-14T03:12:08;5.50;89.80
23301;DHT22;11819;51.394;12.340;2022-11-14T03:14:53;5.50;89.80
23301;DHT22;11819;51.394;12.340;2022-11-14T03:17:37;5.50;89.90
23301;DHT22;11819;51.394;12.340;2022-11-14T03:20:21;5.50;89.90
23301;DHT22;11819;51.394;12.340;2022-11-14T03:23:05;5.50;90.00
23301;DHT22;11819;51.394;12.340;2022-11-14T03:25:50;5.40;90.00
23301;DHT22;11819;51.394;12.340;2022-11-14T03:28:35;5.40;90.30
23301;DHT22;11819;51.394;12.340;2022-11-14T03:31:20;5.40;90.00
23301;DHT22;11819;51.394;12.340;2022-11-14T03:34:04;5.40;89.90
23301;DHT22;11819;51.394;12.340;2022-11-14T03:36:48;5.30;90.30
23301;DHT22;11819;51.394;12.340;2022-11-14T03:39:32;5.30;90.00
23301;DHT22;11819;51.394;12.340;2022-11-14T03:42:16;5.30;90.00
23301;DHT22;11819;51.394;12.340;2022-11-14T03:45:01;5.30;89.90
23301;DHT22;11819;51.394;12.340;2022-11-14T03:47:45;5.20;90.00
23301;DHT22;11819;51.394;12.340;2022-11-14T03:50:29;5.20;90.00
23301;DHT22;11819;51.394;12.340;2022-11-14T03:53:13;5.20;90.00
23301;DHT22;11819;51.394;12.340;2022-11-14T03:55:58;5.20;90.00
23301;DHT22;11819;51.394;12.340;2022-11-14T03:58:42;5.20;90.00
23301;DHT22;11819;51.394;12.340;2022-11-14T04:01:26;5.20;90.10
23301;DHT22;11819;51.394;12.340;2022-11-14T04:04:12;5.20;90.10
23301;DHT22;11819;51.394;12.340;2022-11-14T04:06:56;5.20;90.10
23301;DHT22;11819;51.394;12.340;2022-11-14T04:09:42;5.20;90.10
23301;DHT22;11819;51.394;12.340;2022-11-14T04:12:27;5.20;90.10
23301;DHT22;11819;51.394;12.340;2022-11-14T04:15:11;5.30;90.10
23301;DHT22;11819;51.394;12.340;2022-11-14T04:17:55;5.30;90.10
23301;DHT22;11819;51.394;12.340;2022-11-14T04:20:40;5.30;90.10
23301;DHT22;11819;51.394;12.340;2022-11-14T04:23:24;5.30;90.10
23301;DHT22;11819;51.394;12.340;2022-11-14T04:26:08;5.40;90.10
23301;DHT22;11819;51.394;12.340;2022-11-14T04:28:52;5.40;90.10
23301;DHT22;11819;51.394;12.340;2022-11-14T04:31:36;5.40;90.10
23301;DHT22;11819;51.394;12.340;2022-11-14T04:34:20;5.40;90.10
23301;DHT22;11819;51.394;12.340;2022-11-14T04:37:04;5.40;90.10
23301;DHT22;11819;51.394;12.340;2022-11-14T04:39:48;5.40;90.10
23301;DHT22;11819;51.394;12.340;2022-11-14T04:42:33;5.40;90.20
23301;DHT22;11819;51.394;12.340;2022-11-14T04:45:17;5.40;90.20
23301;DHT22;11819;51.394;12.340;2022-11-14T04:48:01;5.40;90.50
23301;DHT22;11819;51.394;12.340;2022-11-14T04:50:45;5.40;90.20
23301;DHT22;11819;51.394;12.340;2022-11-14T04:53:29;5.40;90.10
23301;DHT22;11819;51.394;12.340;2022-11-14T04:56:13;5.30;90.20
23301;DHT22;11819;51.394;12.340;2022-11-14T04:58:57;5.30;90.20
23301;DHT22;11819;51.394;12.340;2022-11-14T05:01:45;5.40;90.20
23301;DHT22;11819;51.394;12.340;2022-11-14T05:04:29;5.40;90.30
23301;DHT22;11819;51.394;12.340;2022-11-14T05:07:14;5.40;90.20
23301;DHT22;11819;51.394;12.340;2022-11-14T05:09:59;5.40;90.20
23301;DHT22;11819;51.394;12.340;2022-11-14T05:12:43;5.40;90.20
23301;DHT22;11819;51.394;12.340;2022-11-14T05:15:27;5.40;90.60
23301;DHT22;11819;51.394;12.340;2022-11-14T05:18:11;5.40;90.20
23301;DHT22;11819;51.394;12.340;2022-11-14T05:21:00;5.40;90.20
23301;DHT22;11819;51.394;12.340;2022-11-14T05:23:47;5.40;90.20
23301;DHT22;11819;51.394;12.340;2022-11-14T05:26:32;5.40;90.10
23301;DHT22;11819;51.394;12.340;2022-11-14T05:29:17;5.30;90.10
23301;DHT22;11819;51.394;12.340;2022-11-14T05:32:01;5.30;90.00
23301;DHT22;11819;51.394;12.340;2022-11-14T05:34:46;5.20;90.10
23301;DHT22;11819;51.394;12.340;2022-11-14T05:37:30;5.20;90.10
23301;DHT22;11819;51.394;12.340;2022-11-14T05:40:15;5.20;90.20
23301;DHT22;11819;51.394;12.340;2022-11-14T05:43:01;5.20;90.10
23301;DHT22;11819;51.394;12.340;2022-11-14T05:45:45;5.20;90.10
23301;DHT22;11819;51.394;12.340;2022-11-14T05:48:29;5.20;90.10
23301;DHT22;11819;51.394;12.340;2022-11-14T05:51:14;5.20;90.00
23301;DHT22;11819;51.394;12.340;2022-11-14T05:53:59;5.20;90.10
23301;DHT22;11819;51.394;12.340;2022-11-14T05:56:44;5.10;90.10
23301;DHT22;11819;51.394;12.340;2022-11-14T05:59:28;5.10;90.00
23301;DHT22;11819;51.394;12.340;2022-11-14T06:02:12;5.10;90.00
23301;DHT22;11819;51.394;12.340;2022-11-14T06:04:57;5.00;90.00
23301;DHT22;11819;51.394;12.340;2022-11-14T06:07:41;5.00;90.10
23301;DHT22;11819;51.394;12.340;2022-11-14T06:10:25;5.00;90.00
23301;DHT22;11819;51.394;12.340;2022-11-14T06:13:13;5.00;90.00
23301;DHT22;11819;51.394;12.340;2022-11-14T06:15:59;5.00;90.00
23301;DHT22;11819;51.394;12.340;2022-11-14T06:18:44;5.10;90.10
23301;DHT22;11819;51.394;12.340;2022-11-14T06:21:29;5.00;90.10
23301;DHT22;11819;51.394;12.340;2022-11-14T06:24:13;5.00;90.00
23301;DHT22;11819;51.394;12.340;2022-11-14T06:26:57;5.10;90.00
23301;DHT22;11819;51.394;12.340;2022-11-14T06:29:42;5.10;90.40
23301;DHT22;11819;51.394;12.340;2022-11-14T06:32:28;5.10;90.00
23301;DHT22;11819;51.394;12.340;2022-11-14T06:35:12;5.10;90.00
23301;DHT22;11819;51.394;12.340;2022-11-14T06:37:59;5.00;90.00
23301;DHT22;11819;51.394;12.340;2022-11-14T06:40:44;5.00;90.00
23301;DHT22;11819;51.394;12.340;2022-11-14T06:43:28;5.00;90.00
23301;DHT22;11819;51.394;12.340;2022-11-14T06:46:18;5.00;90.00
23301;DHT22;11819;51.394;12.340;2022-11-14T06:49:02;5.00;90.00
23301;DHT22;11819;51.394;12.340;2022-11-14T06:51:46;5.00;90.00
23301;DHT22;11819;51.394;12.340;2022-11-14T06:54:30;5.00;90.00
23301;DHT22;11819;51.394;12.340;2022-11-14T06:57:14;5.00;90.00
23301;DHT22;11819;51.394;12.340;2022-11-14T06:59:59;5.00;90.30
23301;DHT22;11819;51.394;12.340;2022-11-14T07:02:45;5.00;90.00
23301;DHT22;11819;51.394;12.340;2022-11-14T07:05:29;5.00;90.20
23301;DHT22;11819;51.394;12.340;2022-11-14T07:08:14;5.00;89.90
23301;DHT22;11819;51.394;12.340;2022-11-14T07:11:21;5.00;90.00
23301;DHT22;11819;51.394;12.340;2022-11-14T07:14:06;5.00;89.90
23301;DHT22;11819;51.394;12.340;2022-11-14T07:16:50;5.00;89.80
23301;DHT22;11819;51.394;12.340;2022-11-14T07:19:34;5.00;89.90
23301;DHT22;11819;51.394;12.340;2022-11-14T07:22:18;5.00;89.70
23301;DHT22;11819;51.394;12.340;2022-11-14T07:25:02;4.90;89.80
23301;DHT22;11819;51.394;12.340;2022-11-14T07:27:46;4.90;89.90
23301;DHT22;11819;51.394;12.340;2022-11-14T07:30:34;4.90;90.00
23301;DHT22;11819;51.394;12.340;2022-11-14T07:33:19;4.90;90.00
23301;DHT22;11819;51.394;12.340;2022-11-14T07:36:05;5.00;90.00
23301;DHT22;11819;51.394;12.340;2022-11-14T07:38:50;5.00;90.00
23301;DHT22;11819;51.394;12.340;2022-11-14T07:41:34;5.10;90.00
23301;DHT22;11819;51.394;12.340;2022-11-14T07:44:18;5.20;90.00
23301;DHT22;11819;51.394;12.340;2022-11-14T07:47:02;5.20;90.00
23301;DHT22;11819;51.394;12.340;2022-11-14T07:49:46;5.20;90.00
23301;DHT22;11819;51.394;12.340;2022-11-14T07:52:30;5.30;90.10
23301;DHT22;11819;51.394;12.340;2022-11-14T07:55:15;5.30;90.10
23301;DHT22;11819;51.394;12.340;2022-11-14T07:57:59;5.30;90.10
23301;DHT22;11819;51.394;12.340;2022-11-14T08:00:43;5.30;90.10
23301;DHT22;11819;51.394;12.340;2022-11-14T08:03:27;5.40;90.20
23301;DHT22;11819;51.394;12.340;2022-11-14T08:06:13;5.40;90.20
23301;DHT22;11819;51.394;12.340;2022-11-14T08:09:06;5.50;90.20
23301;DHT22;11819;51.394;12.340;2022-11-14T08:11:50;5.60;90.30
23301;DHT22;11819;51.394;12.340;2022-11-14T08:14:34;5.70;90.30
23301;DHT22;11819;51.394;12.340;2022-11-14T08:17:20;5.80;90.30
23301;DHT22;11819;51.394;12.340;2022-11-14T08:20:06;5.90;90.30
23301;DHT22;11819;51.394;12.340;2022-11-14T08:22:51;6.00;90.70
23301;DHT22;11819;51.394;12.340;2022-11-14T08:25:35;6.10;90.40
23301;DHT22;11819;51.394;12.340;2022-11-14T08:28:20;6.20;90.40
23301;DHT22;11819;51.394;12.340;2022-11-14T08:31:04;6.30;90.40
23301;DHT22;11819;51.394;12.340;2022-11-14T08:33:50;6.40;90.50
23301;DHT22;11819;51.394;12.340;2022-11-14T08:36:35;6.50;90.50
23301;DHT22;11819;51.394;12.340;2022-11-14T08:39:19;6.60;90.50
23301;DHT22;11819;51.394;12.340;2022-11-14T08:42:03;6.70;90.60
23301;DHT22;11819;51.394;12.340;2022-11-14T08:44:47;6.80;90.60
23301;DHT22;11819;51.394;12.340;2022-11-14T08:47:31;6.90;90.60
23301;DHT22;11819;51.394;12.340;2022-11-14T08:50:15;6.90;90.60
23301;DHT22;11819;51.394;12.340;2022-11-14T08:52:59;7.00;90.60
23301;DHT22;11819;51.394;12.340;2022-11-14T08:55:46;7.00;90.70
23301;DHT22;11819;51.394;12.340;2022-11-14T08:58:31;7.10;90.80
23301;DHT22;11819;51.394;12.340;2022-11-14T09:01:16;7.20;90.80
23301;DHT22;11819;51.394;12.340;2022-11-14T09:04:00;7.30;90.90
23301;DHT22;11819;51.394;12.340;2022-11-14T09:06:44;7.40;91.00
23301;DHT22;11819;51.394;12.340;2022-11-14T09:09:29;7.40;91.00
23301;DHT22;11819;51.394;12.340;2022-11-14T09:12:13;7.50;91.00
23301;DHT22;11819;51.394;12.340;2022-11-14T09:14:57;7.60;91.10
23301;DHT22;11819;51.394;12.340;2022-11-14T09:17:41;7.60;91.10
23301;DHT22;11819;51.394;12.340;2022-11-14T09:20:26;7.70;91.10
23301;DHT22;11819;51.394;12.340;2022-11-14T09:23:13;7.70;91.10
23301;DHT22;11819;51.394;12.340;2022-11-14T09:25:57;7.80;91.10
23301;DHT22;11819;51.394;12.340;2022-11-14T09:28:41;7.80;91.10
23301;DHT22;11819;51.394;12.340;2022-11-14T09:31:27;7.90;91.00
23301;DHT22;11819;51.394;12.340;2022-11-14T09:34:12;7.90;91.00
23301;DHT22;11819;51.394;12.340;2022-11-14T09:36:57;7.90;91.10
23301;DHT22;11819;51.394;12.340;2022-11-14T09:39:41;8.00;91.00
23301;DHT22;11819;51.394;12.340;2022-11-14T09:45:33;8.00;91.00
23301;DHT22;11819;51.394;12.340;2022-11-14T09:48:21;8.10;91.10
23301;DHT22;11819;51.394;12.340;2022-11-14T09:51:18;8.10;91.10
23301;DHT22;11819;51.394;12.340;2022-11-14T09:54:28;8.20;91.20
23301;DHT22;11819;51.394;12.340;2022-11-14T09:57:16;8.30;91.20
23301;DHT22;11819;51.394;12.340;2022-11-14T10:00:01;8.30;91.20
23301;DHT22;11819;51.394;12.340;2022-11-14T10:09:33;8.50;91.20
23301;DHT22;11819;51.394;12.340;2022-11-14T10:12:25;8.50;91.20
23301;DHT22;11819;51.394;12.340;2022-11-14T10:15:41;8.60;91.20
23301;DHT22;11819;51.394;12.340;2022-11-14T10:24:55;8.70;91.10
23301;DHT22;11819;51.394;12.340;2022-11-14T10:34:29;8.90;91.10
23301;DHT22;11819;51.394;12.340;2022-11-14T10:37:17;8.90;91.10
23301;DHT22;11819;51.394;12.340;2022-11-14T10:40:24;9.00;91.10
23301;DHT22;11819;51.394;12.340;2022-11-14T10:46:14;9.10;91.10
23301;DHT22;11819;51.394;12.340;2022-11-14T10:49:15;9.10;91.00
23301;DHT22;11819;51.394;12.340;2022-11-14T10:52:05;9.20;91.00
23301;DHT22;11819;51.394;12.340;2022-11-14T10:54:57;9.20;91.00
23301;DHT22;11819;51.394;12.340;2022-11-14T10:57:46;9.30;90.90
23301;DHT22;11819;51.394;12.340;2022-11-14T11:00:30;9.30;90.80
23301;DHT22;11819;51.394;12.340;2022-11-14T11:03:15;9.30;90.80
23301;DHT22;11819;51.394;12.340;2022-11-14T11:05:59;9.40;90.90
23301;DHT22;11819;51.394;12.340;2022-11-14T11:08:43;9.40;90.90
23301;DHT22;11819;51.394;12.340;2022-11-14T11:11:58;9.50;90.90
23301;DHT22;11819;51.394;12.340;2022-11-14T11:14:46;9.50;90.90
23301;DHT22;11819;51.394;12.340;2022-11-14T11:17:31;9.60;90.90
23301;DHT22;11819;51.394;12.340;2022-11-14T11:20:37;9.70;90.80
23301;DHT22;11819;51.394;12.340;2022-11-14T11:23:26;9.70;90.80
23301;DHT22;11819;51.394;12.340;2022-11-14T11:26:18;9.80;90.80
23301;DHT22;11819;51.394;12.340;2022-11-14T11:29:14;9.80;90.80
23301;DHT22;11819;51.394;12.340;2022-11-14T11:31:58;9.90;90.70
23301;DHT22;11819;51.394;12.340;2022-11-14T11:34:43;10.00;90.80
23301;DHT22;11819;51.394;12.340;2022-11-14T11:37:32;10.00;90.70
23301;DHT22;11819;51.394;12.340;2022-11-14T11:40:24;10.10;90.70
23301;DHT22;11819;51.394;12.340;2022-11-14T11:49:41;10.20;90.40
23301;DHT22;11819;51.394;12.340;2022-11-14T11:52:38;10.20;90.40
23301;DHT22;11819;51.394;12.340;2022-11-14T11:55:29;10.30;90.30
23301;DHT22;11819;51.394;12.340;2022-11-14T11:58:18;10.30;90.30
23301;DHT22;11819;51.394;12.340;2022-11-14T12:01:07;10.40;90.20
23301;DHT22;11819;51.394;12.340;2022-11-14T12:03:53;10.40;90.10
23301;DHT22;11819;51.394;12.340;2022-11-14T12:06:43;10.50;90.00
23301;DHT22;11819;51.394;12.340;2022-11-14T12:09:38;10.50;89.90
23301;DHT22;11819;51.394;12.340;2022-11-14T12:24:25;10.80;89.10
23301;DHT22;11819;51.394;12.340;2022-11-14T12:27:32;10.80;88.80
23301;DHT22;11819;51.394;12.340;2022-11-14T12:30:20;10.80;88.60
23301;DHT22;11819;51.394;12.340;2022-11-14T12:36:00;10.90;89.30
23301;DHT22;11819;51.394;12.340;2022-11-14T12:38:51;10.90;88.20
23301;DHT22;11819;51.394;12.340;2022-11-14T12:41:39;10.90;88.10
23301;DHT22;11819;51.394;12.340;2022-11-14T12:49:59;11.10;87.90
23301;DHT22;11819;51.394;12.340;2022-11-14T12:52:51;11.10;87.80
23301;DHT22;11819;51.394;12.340;2022-11-14T13:01:36;11.20;87.50
23301;DHT22;11819;51.394;12.340;2022-11-14T13:07:50;11.40;87.90
23301;DHT22;11819;51.394;12.340;2022-11-14T13:10:40;11.70;89.50
23301;DHT22;11819;51.394;12.340;2022-11-14T13:13:24;12.20;90.20
23301;DHT22;11819;51.394;12.340;2022-11-14T13:16:31;12.70;90.20
23301;DHT22;11819;51.394;12.340;2022-11-14T13:19:34;13.30;90.00
23301;DHT22;11819;51.394;12.340;2022-11-14T13:23:03;13.90;89.10
23301;DHT22;11819;51.394;12.340;2022-11-14T13:25:47;14.60;87.70
23301;DHT22;11819;51.394;12.340;2022-11-14T13:28:52;15.00;86.30
23301;DHT22;11819;51.394;12.340;2022-11-14T13:31:46;15.40;84.80
23301;DHT22;11819;51.394;12.340;2022-11-14T13:35:02;15.70;83.30
23301;DHT22;11819;51.394;12.340;2022-11-14T13:41:24;15.90;79.30
23301;DHT22;11819;51.394;12.340;2022-11-14T13:47:27;15.20;77.10
23301;DHT22;11819;51.394;12.340;2022-11-14T13:50:18;14.90;76.80
23301;DHT22;11819;51.394;12.340;2022-11-14T13:53:16;14.70;76.60
23301;DHT22;11819;51.394;12.340;2022-11-14T13:56:12;14.40;76.40
23301;DHT22;11819;51.394;12.340;2022-11-14T14:02:34;13.80;75.90
23301;DHT22;11819;51.394;12.340;2022-11-14T14:12:25;13.00;76.70
23301;DHT22;11819;51.394;12.340;2022-11-14T14:15:33;12.90;77.10
23301;DHT22;11819;51.394;12.340;2022-11-14T14:18:43;12.80;77.70
23301;DHT22;11819;51.394;12.340;2022-11-14T14:21:47;12.80;78.00
23301;DHT22;11819;51.394;12.340;2022-11-14T14:25:08;12.70;77.80
23301;DHT22;11819;51.394;12.340;2022-11-14T14:28:10;12.70;78.70
23301;DHT22;11819;51.394;12.340;2022-11-14T14:31:10;12.80;78.60
23301;DHT22;11819;51.394;12.340;2022-11-14T14:33:55;12.80;78.10
23301;DHT22;11819;51.394;12.340;2022-11-14T14:36:48;12.70;77.80
23301;DHT22;11819;51.394;12.340;2022-11-14T14:39:33;12.50;77.60
23301;DHT22;11819;51.394;12.340;2022-11-14T14:42:17;12.40;77.60
23301;DHT22;11819;51.394;12.340;2022-11-14T14:45:22;12.30;77.70
23301;DHT22;11819;51.394;12.340;2022-11-14T14:48:17;12.20;77.80
23301;DHT22;11819;51.394;12.340;2022-11-14T14:51:02;12.10;77.90
23301;DHT22;11819;51.394;12.340;2022-11-14T14:53:55;12.00;77.90
23301;DHT22;11819;51.394;12.340;2022-11-14T14:56:58;12.00;78.10
23301;DHT22;11819;51.394;12.340;2022-11-14T14:59:59;11.90;78.20
23301;DHT22;11819;51.394;12.340;2022-11-14T15:02:44;11.90;78.20
23301;DHT22;11819;51.394;12.340;2022-11-14T15:05:29;11.80;78.10
23301;DHT22;11819;51.394;12.340;2022-11-14T15:08:15;11.70;78.20
23301;DHT22;11819;51.394;12.340;2022-11-14T15:11:00;11.60;78.20
23301;DHT22;11819;51.394;12.340;2022-11-14T15:13:45;11.50;78.40
23301;DHT22;11819;51.394;12.340;2022-11-14T15:16:33;11.40;78.60
23301;DHT22;11819;51.394;12.340;2022-11-14T15:19:23;11.30;78.70
23301;DHT22;11819;51.394;12.340;2022-11-14T15:27:55;11.20;79.30
23301;DHT22;11819;51.394;12.340;2022-11-14T15:30:41;11.10;79.40
23301;DHT22;11819;51.394;12.340;2022-11-14T15:33:39;11.10;79.50
23301;DHT22;11819;51.394;12.340;2022-11-14T15:36:24;11.00;79.50
23301;DHT22;11819;51.394;12.340;2022-11-14T15:39:26;10.90;79.70
23301;DHT22;11819;51.394;12.340;2022-11-14T15:45:22;10.80;80.00
23301;DHT22;11819;51.394;12.340;2022-11-14T15:48:15;10.70;80.20
23301;DHT22;11819;51.394;12.340;2022-11-14T15:51:01;10.60;80.30
23301;DHT22;11819;51.394;12.340;2022-11-14T15:53:46;10.60;80.50
23301;DHT22;11819;51.394;12.340;2022-11-14T15:56:32;10.50;80.60
23301;DHT22;11819;51.394;12.340;2022-11-14T15:59:16;10.50;80.90
23301;DHT22;11819;51.394;12.340;2022-11-14T16:02:27;10.40;81.00
23301;DHT22;11819;51.394;12.340;2022-11-14T16:05:12;10.40;81.20
23301;DHT22;11819;51.394;12.340;2022-11-14T16:07:58;10.40;81.40
23301;DHT22;11819;51.394;12.340;2022-11-14T16:10:42;10.40;81.40
23301;DHT22;11819;51.394;12.340;2022-11-14T16:13:26;10.40;81.50
23301;DHT22;11819;51.394;12.340;2022-11-14T16:16:10;10.40;81.50
23301;DHT22;11819;51.394;12.340;2022-11-14T16:18:54;10.40;81.60
23301;DHT22;11819;51.394;12.340;2022-11-14T16:21:40;10.40;81.70
23301;DHT22;11819;51.394;12.340;2022-11-14T16:24:24;10.40;81.70
23301;DHT22;11819;51.394;12.340;2022-11-14T16:27:09;10.40;81.70
23301;DHT22;11819;51.394;12.340;2022-11-14T16:29:53;10.40;81.80
23301;DHT22;11819;51.394;12.340;2022-11-14T16:32:38;10.40;81.80
23301;DHT22;11819;51.394;12.340;2022-11-14T16:35:26;10.40;81.80
23301;DHT22;11819;51.394;12.340;2022-11-14T16:38:11;10.40;82.00
23301;DHT22;11819;51.394;12.340;2022-11-14T16:40:57;10.30;82.00
23301;DHT22;11819;51.394;12.340;2022-11-14T16:43:43;10.30;82.10
23301;DHT22;11819;51.394;12.340;2022-11-14T16:46:27;10.30;82.20
23301;DHT22;11819;51.394;12.340;2022-11-14T16:49:16;10.30;82.30
23301;DHT22;11819;51.394;12.340;2022-11-14T16:52:00;10.20;82.30
23301;DHT22;11819;51.394;12.340;2022-11-14T16:54:50;10.20;82.30
23301;DHT22;11819;51.394;12.340;2022-11-14T16:57:34;10.20;82.40
23301;DHT22;11819;51.394;12.340;2022-11-14T17:00:20;10.20;82.40
23301;DHT22;11819;51.394;12.340;2022-11-14T17:03:04;10.20;82.40
23301;DHT22;11819;51.394;12.340;2022-11-14T17:05:51;10.20;82.40
23301;DHT22;11819;51.394;12.340;2022-11-14T17:08:35;10.20;82.50
23301;DHT22;11819;51.394;12.340;2022-11-14T17:11:20;10.20;82.40
23301;DHT22;11819;51.394;12.340;2022-11-14T17:14:04;10.10;82.40
23301;DHT22;11819;51.394;12.340;2022-11-14T17:16:48;10.10;82.40
23301;DHT22;11819;51.394;12.340;2022-11-14T17:19:32;10.10;82.50
23301;DHT22;11819;51.394;12.340;2022-11-14T17:22:17;10.10;82.60
23301;DHT22;11819;51.394;12.340;2022-11-14T17:25:02;10.00;82.60
23301;DHT22;11819;51.394;12.340;2022-11-14T17:27:47;10.00;82.70
23301;DHT22;11819;51.394;12.340;2022-11-14T17:30:42;10.00;82.60
23301;DHT22;11819;51.394;12.340;2022-11-14T17:33:26;9.90;82.50
23301;DHT22;11819;51.394;12.340;2022-11-14T17:36:10;9.90;82.50
23301;DHT22;11819;51.394;12.340;2022-11-14T17:38:56;9.80;82.50
23301;DHT22;11819;51.394;12.340;2022-11-14T17:41:40;9.80;82.60
23301;DHT22;11819;51.394;12.340;2022-11-14T17:44:24;9.70;82.70
23301;DHT22;11819;51.394;12.340;2022-11-14T17:47:08;9.60;82.80
23301;DHT22;11819;51.394;12.340;2022-11-14T17:49:52;9.60;82.80
23301;DHT22;11819;51.394;12.340;2022-11-14T17:52:36;9.60;82.80
23301;DHT22;11819;51.394;12.340;2022-11-14T17:55:20;9.60;82.80
23301;DHT22;11819;51.394;12.340;2022-11-14T17:58:04;9.50;82.80
23301;DHT22;11819;51.394;12.340;2022-11-14T18:00:49;9.40;82.90
23301;DHT22;11819;51.394;12.340;2022-11-14T18:03:34;9.30;82.90
23301;DHT22;11819;51.394;12.340;2022-11-14T18:06:19;9.30;83.10
23301;DHT22;11819;51.394;12.340;2022-11-14T18:09:04;9.20;83.20
23301;DHT22;11819;51.394;12.340;2022-11-14T18:11:49;9.20;83.30
23301;DHT22;11819;51.394;12.340;2022-11-14T18:14:33;9.20;83.30
23301;DHT22;11819;51.394;12.340;2022-11-14T18:17:18;9.20;83.40
23301;DHT22;11819;51.394;12.340;2022-11-14T18:20:03;9.20;83.50
23301;DHT22;11819;51.394;12.340;2022-11-14T18:22:47;9.20;83.50
23301;DHT22;11819;51.394;12.340;2022-11-14T18:25:31;9.20;83.60
23301;DHT22;11819;51.394;12.340;2022-11-14T18:28:16;9.20;83.60
23301;DHT22;11819;51.394;12.340;2022-11-14T18:31:00;9.20;83.40
23301;DHT22;11819;51.394;12.340;2022-11-14T18:33:50;9.20;83.30
23301;DHT22;11819;51.394;12.340;2022-11-14T18:36:35;9.20;83.30
23301;DHT22;11819;51.394;12.340;2022-11-14T18:39:19;9.10;83.30
23301;DHT22;11819;51.394;12.340;2022-11-14T18:42:03;9.10;83.30
23301;DHT22;11819;51.394;12.340;2022-11-14T18:44:47;9.20;83.50
23301;DHT22;11819;51.394;12.340;2022-11-14T18:47:33;9.10;83.40
23301;DHT22;11819;51.394;12.340;2022-11-14T18:50:17;9.10;83.50
23301;DHT22;11819;51.394;12.340;2022-11-14T18:53:01;9.10;83.50
23301;DHT22;11819;51.394;12.340;2022-11-14T18:55:45;9.20;83.60
23301;DHT22;11819;51.394;12.340;2022-11-14T18:58:36;9.20;84.40
23301;DHT22;11819;51.394;12.340;2022-11-14T19:01:24;9.30;83.50
23301;DHT22;11819;51.394;12.340;2022-11-14T19:04:10;9.30;83.60